Time;durP1;ratioP1;P1;durP2;ratioP2;P2;SDS_P1;SDS_P2;PMS_P1;PMS_P2;Temp;Humidity;BMP_temperature;BMP_pressure;BME280_temperature;BME280_humidity;BME280_pressure;Samples;Min_cycle;Max_cycle;Signal;HPM_P1;HPM_P2
2023/09/12 00:01:24;;;;;;;23.67;15.25;;;;;;;19.14;100.00;101180.00;5049415;28;20048;-68
2023/09/12 00:03:49;;;;;;;27.58;15.65;;;;;;;19.09;100.00;101183.25;5050024;28;20029;-69
2023/09/12 00:06:15;;;;;;;26.58;15.38;;;;;;;19.11;100.00;101192.22;5042042;28;20036;-69
2023/09/12 00:08:41;;;;;;;28.60;16.60;;;;;;;19.07;100.00;101193.59;5028004;28;20051;-69
2023/09/12 00:11:10;;;;;;;29.02;16.75;;;;;;;19.07;100.00;101198.19;5027914;28;20524;-68
2023/09/12 00:13:37;;;;;;;23.13;15.45;;;;;;;19.04;100.00;101204.91;5027671;28;20041;-68
2023/09/12 00:16:02;;;;;;;25.80;16.15;;;;;;;19.01;100.00;101196.94;5029749;28;20064;-69
2023/09/12 00:18:28;;;;;;;31.10;16.95;;;;;;;18.98;100.00;101199.16;5044660;28;20477;-69
2023/09/12 00:20:53;;;;;;;27.58;17.65;;;;;;;18.94;100.00;101197.75;5010372;28;20044;-69
2023/09/12 00:23:21;;;;;;;25.90;15.50;;;;;;;18.93;100.00;101202.41;5008218;28;20111;-69
2023/09/12 00:25:47;;;;;;;23.75;15.10;;;;;;;18.94;100.00;101195.84;5021575;28;20567;-69
2023/09/12 00:28:12;;;;;;;26.83;15.45;;;;;;;18.92;100.00;101200.66;5027432;28;20026;-69
2023/09/12 00:30:37;;;;;;;27.38;15.70;;;;;;;18.87;100.00;101203.00;5044572;28;20041;-69
2023/09/12 00:33:03;;;;;;;24.45;16.00;;;;;;;18.85;100.00;101196.81;5044299;28;20045;-68
2023/09/12 00:35:28;;;;;;;26.02;15.40;;;;;;;18.80;100.00;101193.66;5044522;28;20032;-69
2023/09/12 00:37:54;;;;;;;22.73;15.18;;;;;;;18.77;100.00;101202.22;5029065;28;20029;-68
2023/09/12 00:40:19;;;;;;;22.60;14.98;;;;;;;18.73;100.00;101198.03;5027838;28;20037;-69
2023/09/12 00:42:44;;;;;;;24.77;12.48;;;;;;;18.69;100.00;101205.75;5027483;28;20128;-69
2023/09/12 00:45:10;;;;;;;26.65;13.88;;;;;;;18.63;100.00;101197.19;5028971;28;20040;-68
2023/09/12 00:47:36;;;;;;;23.00;13.00;;;;;;;18.59;100.00;101199.41;5027922;28;20037;-69
2023/09/12 00:50:04;;;;;;;21.27;13.05;;;;;;;18.54;100.00;101197.09;5028831;28;20033;-70
2023/09/12 00:52:33;;;;;;;24.00;14.85;;;;;;;18.49;100.00;101198.59;5044056;28;20048;-68
2023/09/12 00:54:58;;;;;;;21.58;14.65;;;;;;;18.46;100.00;101188.72;5039843;28;20095;-68
2023/09/12 00:57:23;;;;;;;30.40;15.18;;;;;;;18.41;100.00;101193.84;5017944;28;20108;-69
2023/09/12 00:59:50;;;;;;;19.52;12.98;;;;;;;18.42;100.00;101194.69;5027776;28;20049;-69
2023/09/12 01:02:16;;;;;;;19.70;12.73;;;;;;;18.38;100.00;101191.41;5028618;28;20037;-68
2023/09/12 01:04:42;;;;;;;22.88;14.57;;;;;;;18.31;100.00;101184.75;5028121;28;20500;-70
2023/09/12 01:07:07;;;;;;;22.77;13.20;;;;;;;18.29;100.00;101184.06;5043040;28;20279;-68
2023/09/12 01:09:33;;;;;;;24.52;13.85;;;;;;;18.28;100.00;101190.59;5027615;28;20040;-69
2023/09/12 01:12:02;;;;;;;21.98;13.77;;;;;;;18.27;100.00;101183.34;5027135;28;20025;-69
2023/09/12 01:14:28;;;;;;;18.27;12.65;;;;;;;18.21;100.00;101176.56;5044233;28;20044;-69
2023/09/12 01:16:53;;;;;;;20.23;13.85;;;;;;;18.17;100.00;101183.38;5049042;28;20040;-69
2023/09/12 01:19:19;;;;;;;20.45;14.30;;;;;;;18.12;100.00;101174.72;5029799;28;20440;-69
2023/09/12 01:22:11;;;;;;;24.20;14.32;;;;;;;18.13;100.00;101179.19;5047075;28;20051;-70
2023/09/12 01:25:07;;;;;;;22.35;14.02;;;;;;;18.10;100.00;101185.03;5023314;28;20034;-69
2023/09/12 01:27:38;;;;;;;18.30;13.05;;;;;;;18.03;100.00;101178.38;5011915;28;20033;-69
2023/09/12 01:30:09;;;;;;;19.17;12.52;;;;;;;17.99;100.00;101172.28;5047874;28;20118;-69
2023/09/12 01:32:35;;;;;;;18.95;13.52;;;;;;;17.94;100.00;101173.78;5047663;28;20032;-69
2023/09/12 01:35:03;;;;;;;22.85;14.18;;;;;;;17.92;100.00;101173.06;5028663;28;20118;-69
2023/09/12 01:37:30;;;;;;;22.13;14.68;;;;;;;17.86;100.00;101166.28;5029902;28;20040;-69
2023/09/12 01:39:56;;;;;;;24.77;14.38;;;;;;;17.82;100.00;101171.22;5048188;28;20507;-69
2023/09/12 01:42:22;;;;;;;20.58;12.68;;;;;;;17.80;100.00;101170.50;5033480;28;20037;-69
2023/09/12 01:44:51;;;;;;;20.52;13.55;;;;;;;17.78;100.00;101175.28;5027000;28;20477;-69
2023/09/12 01:47:17;;;;;;;20.73;13.65;;;;;;;17.72;100.00;101170.38;5028237;28;20041;-69
2023/09/12 01:49:46;;;;;;;18.60;11.98;;;;;;;17.71;100.00;101170.50;5043037;28;20507;-69
2023/09/12 01:52:13;;;;;;;19.45;12.65;;;;;;;17.69;100.00;101172.53;5045395;28;20031;-69
2023/09/12 01:54:40;;;;;;;24.25;13.25;;;;;;;17.69;100.00;101180.78;5044546;28;20124;-69
2023/09/12 01:57:05;;;;;;;19.58;12.65;;;;;;;17.66;100.00;101175.56;5023669;28;20048;-69
2023/09/12 01:59:31;;;;;;;21.90;13.88;;;;;;;17.63;100.00;101175.91;5058323;28;20504;-69
2023/09/12 02:01:56;;;;;;;23.98;14.52;;;;;;;17.59;100.00;101178.06;5046622;28;20041;-69
2023/09/12 02:04:22;;;;;;;20.67;13.68;;;;;;;17.55;100.00;101173.88;5047911;28;20403;-69
2023/09/12 02:06:47;;;;;;;24.20;13.50;;;;;;;17.53;100.00;101179.53;5047972;28;20166;-69
2023/09/12 02:09:12;;;;;;;27.98;14.27;;;;;;;17.51;100.00;101176.03;5029600;28;20032;-69
2023/09/12 02:11:38;;;;;;;16.48;12.10;;;;;;;17.50;100.00;101171.56;5028074;28;20061;-69
2023/09/12 02:14:03;;;;;;;23.33;13.10;;;;;;;17.47;100.00;101169.09;5025672;28;20060;-69
2023/09/12 02:16:30;;;;;;;22.92;12.48;;;;;;;17.45;100.00;101162.03;5027951;28;20044;-69
2023/09/12 02:18:56;;;;;;;19.27;11.68;;;;;;;17.42;100.00;101165.94;5025948;28;20075;-69
2023/09/12 02:21:21;;;;;;;19.88;11.98;;;;;;;17.39;100.00;101166.22;5043171;28;20686;-69
2023/09/12 02:23:46;;;;;;;22.13;13.50;;;;;;;17.37;100.00;101164.66;5009005;28;20508;-69
2023/09/12 02:26:12;;;;;;;22.33;11.70;;;;;;;17.32;100.00;101165.09;5010214;28;20109;-69
2023/09/12 02:28:37;;;;;;;24.60;11.35;;;;;;;17.27;100.00;101173.78;5021158;28;20120;-69
2023/09/12 02:31:02;;;;;;;19.83;12.13;;;;;;;17.24;100.00;101170.44;5046944;28;20021;-69
2023/09/12 02:33:28;;;;;;;21.45;11.55;;;;;;;17.25;100.00;101177.66;5046230;28;20044;-69
2023/09/12 02:35:53;;;;;;;23.85;11.32;;;;;;;17.26;100.00;101174.78;5049072;28;20123;-69
2023/09/12 02:38:19;;;;;;;17.92;10.40;;;;;;;17.24;100.00;101175.94;5025471;28;20733;-69
2023/09/12 02:40:44;;;;;;;20.33;10.50;;;;;;;17.21;100.00;101170.75;5040636;28;20030;-69
2023/09/12 02:43:09;;;;;;;17.33;11.00;;;;;;;17.18;100.00;101168.28;5034460;28;20136;-69
2023/09/12 02:45:35;;;;;;;18.33;10.80;;;;;;;17.13;100.00;101168.72;5038712;28;20393;-69
2023/09/12 02:48:01;;;;;;;16.75;9.38;;;;;;;17.11;100.00;101167.97;5038789;28;20045;-69
2023/09/12 02:50:26;;;;;;;16.58;9.50;;;;;;;17.08;100.00;101166.41;5045692;28;20051;-69
2023/09/12 02:52:51;;;;;;;18.10;11.50;;;;;;;17.08;100.00;101171.03;5041461;28;20071;-69
2023/09/12 02:55:17;;;;;;;19.58;11.02;;;;;;;17.05;100.00;101163.94;5028841;28;20088;-69
2023/09/12 02:57:42;;;;;;;25.13;10.75;;;;;;;17.02;100.00;101161.50;5029552;28;20520;-69
2023/09/12 03:00:09;;;;;;;24.98;12.85;;;;;;;17.00;100.00;101163.50;5034788;28;20445;-70
2023/09/12 03:02:34;;;;;;;17.17;9.70;;;;;;;16.96;100.00;101163.94;5033844;28;20523;-69
2023/09/12 03:05:01;;;;;;;15.25;10.85;;;;;;;16.92;100.00;101165.25;5037437;28;20064;-69
2023/09/12 03:07:27;;;;;;;12.73;9.65;;;;;;;16.91;100.00;101172.63;5033047;28;20033;-69
2023/09/12 03:09:52;;;;;;;16.40;9.57;;;;;;;16.91;100.00;101171.75;5031932;28;20037;-69
2023/09/12 03:12:17;;;;;;;15.98;9.75;;;;;;;16.90;100.00;101167.28;5031022;28;20700;-69
2023/09/12 03:14:43;;;;;;;27.40;10.30;;;;;;;16.86;100.00;101172.19;5039499;28;20107;-69
2023/09/12 03:17:08;;;;;;;14.30;10.40;;;;;;;16.81;100.00;101166.25;5034377;28;20030;-69
2023/09/12 03:19:33;;;;;;;19.95;11.25;;;;;;;16.75;100.00;101164.09;5039478;28;20048;-69
2023/09/12 03:21:59;;;;;;;20.40;11.18;;;;;;;16.72;100.00;101176.22;5038929;28;20523;-69
2023/09/12 03:24:25;;;;;;;18.35;10.65;;;;;;;16.72;100.00;101165.25;5034158;28;20045;-69
2023/09/12 03:26:51;;;;;;;22.95;11.45;;;;;;;16.70;100.00;101155.38;5030082;28;21066;-69
2023/09/12 03:29:16;;;;;;;22.52;9.80;;;;;;;16.69;100.00;101159.97;5033787;28;20053;-69
2023/09/12 03:31:42;;;;;;;19.98;10.43;;;;;;;16.66;100.00;101156.69;5030910;28;20039;-69
2023/09/12 03:34:08;;;;;;;22.45;11.00;;;;;;;16.60;100.00;101152.63;5038291;28;20045;-69
2023/09/12 03:36:33;;;;;;;19.98;12.38;;;;;;;16.60;100.00;101155.38;5035954;28;20113;-69
2023/09/12 03:38:59;;;;;;;17.63;10.45;;;;;;;16.58;100.00;101154.63;5032723;28;20505;-70
2023/09/12 03:41:25;;;;;;;18.65;10.98;;;;;;;16.57;100.00;101151.03;5029675;28;20087;-69
2023/09/12 03:43:55;;;;;;;18.27;10.68;;;;;;;16.55;100.00;101155.81;5026764;28;20106;-70
2023/09/12 03:46:21;;;;;;;19.30;11.55;;;;;;;16.57;100.00;101161.16;5036416;28;20480;-70
2023/09/12 03:48:47;;;;;;;18.25;11.32;;;;;;;16.56;100.00;101152.03;5035158;28;20535;-70
2023/09/12 03:51:13;;;;;;;23.48;13.02;;;;;;;16.56;100.00;101157.53;5039347;28;20036;-70
2023/09/12 03:53:38;;;;;;;24.92;11.93;;;;;;;16.56;100.00;101153.94;5031673;28;20473;-70
2023/09/12 03:56:04;;;;;;;18.25;9.70;;;;;;;16.58;100.00;101165.63;5029476;28;20042;-70
2023/09/12 03:58:29;;;;;;;19.77;9.90;;;;;;;16.58;100.00;101157.38;5025154;28;20119;-70
2023/09/12 04:00:55;;;;;;;14.38;9.25;;;;;;;16.56;100.00;101154.78;5029985;28;20752;-70
2023/09/12 04:03:20;;;;;;;15.25;9.75;;;;;;;16.57;100.00;101150.16;5034600;28;20043;-70
2023/09/12 04:05:47;;;;;;;15.85;10.20;;;;;;;16.55;100.00;101155.81;5031806;28;20065;-70
2023/09/12 04:08:12;;;;;;;24.73;12.10;;;;;;;16.56;100.00;101153.94;5033979;28;20488;-70
2023/09/12 04:10:37;;;;;;;20.98;11.77;;;;;;;16.56;100.00;101149.28;5042608;28;20048;-69
2023/09/12 04:13:03;;;;;;;23.80;11.73;;;;;;;16.54;100.00;101144.94;5034552;28;20083;-69
2023/09/12 04:15:29;;;;;;;22.42;12.40;;;;;;;16.55;100.00;101146.66;5039387;28;20555;-70
2023/09/12 04:17:54;;;;;;;22.17;13.30;;;;;;;16.55;100.00;101147.56;5022303;28;20088;-70
2023/09/12 04:20:20;;;;;;;19.85;12.38;;;;;;;16.56;100.00;101146.53;5046523;28;20033;-70
2023/09/12 04:22:45;;;;;;;28.67;13.77;;;;;;;16.59;100.00;101139.88;5035485;28;20040;-70
2023/09/12 04:25:11;;;;;;;27.88;14.23;;;;;;;16.63;100.00;101140.47;5036191;28;20029;-69
2023/09/12 04:27:36;;;;;;;32.35;13.73;;;;;;;16.67;100.00;101140.03;5035545;28;20041;-69
2023/09/12 04:30:03;;;;;;;22.42;12.82;;;;;;;16.68;100.00;101139.03;5044937;28;20029;-69
2023/09/12 04:32:29;;;;;;;24.33;12.75;;;;;;;16.71;100.00;101146.13;5029562;28;20068;-70
2023/09/12 04:34:54;;;;;;;22.15;12.90;;;;;;;16.72;100.00;101142.41;5046329;28;20056;-70
2023/09/12 04:37:20;;;;;;;21.05;12.45;;;;;;;16.75;100.00;101142.13;5029169;28;20120;-69
2023/09/12 04:39:45;;;;;;;22.42;12.75;;;;;;;16.76;100.00;101150.22;5023098;28;20029;-69
2023/09/12 04:42:11;;;;;;;26.92;12.90;;;;;;;16.78;100.00;101155.53;5033160;28;20458;-69
2023/09/12 04:44:39;;;;;;;25.55;12.73;;;;;;;16.77;100.00;101146.44;5037309;28;20528;-69
2023/09/12 04:47:05;;;;;;;25.65;13.80;;;;;;;16.77;100.00;101151.94;5029315;28;20072;-70
2023/09/12 04:49:30;;;;;;;26.45;15.30;;;;;;;16.80;100.00;101154.41;5030666;28;20667;-70
2023/09/12 04:51:55;;;;;;;23.90;14.20;;;;;;;16.82;100.00;101148.75;5032355;28;20041;-70
2023/09/12 04:54:21;;;;;;;26.23;14.88;;;;;;;16.82;100.00;101146.88;5040597;28;20055;-70
2023/09/12 04:56:47;;;;;;;23.08;13.10;;;;;;;16.86;100.00;101146.59;5029994;28;21925;-70
2023/09/12 04:59:12;;;;;;;24.17;13.88;;;;;;;16.87;100.00;101151.94;5021073;28;20378;-70
2023/09/12 05:01:37;;;;;;;22.30;12.55;;;;;;;16.88;100.00;101150.06;5037866;28;20045;-70
2023/09/12 05:04:03;;;;;;;25.23;13.48;;;;;;;16.85;100.00;101162.22;5026951;28;20085;-69
2023/09/12 05:06:29;;;;;;;20.13;13.05;;;;;;;16.82;100.00;101159.75;5039212;28;20036;-69
2023/09/12 05:08:55;;;;;;;22.58;12.77;;;;;;;16.81;100.00;101166.25;5044761;28;20041;-70
2023/09/12 05:11:23;;;;;;;19.27;12.60;;;;;;;16.79;100.00;101166.41;5034049;28;20535;-69
2023/09/12 05:13:49;;;;;;;23.08;14.10;;;;;;;16.77;100.00;101157.44;5024809;28;20041;-70
2023/09/12 05:16:14;;;;;;;25.55;14.20;;;;;;;16.77;100.00;101162.94;5035536;28;20037;-70
2023/09/12 05:18:39;;;;;;;21.83;13.40;;;;;;;16.75;100.00;101161.34;5033522;28;20408;-70
2023/09/12 05:21:05;;;;;;;23.55;12.77;;;;;;;16.76;100.00;101161.19;5028112;28;20033;-69
2023/09/12 05:23:30;;;;;;;24.08;14.32;;;;;;;16.79;100.00;101162.81;5030962;28;20047;-70
2023/09/12 05:25:56;;;;;;;21.42;12.40;;;;;;;16.83;100.00;101166.97;5025790;28;20025;-70
2023/09/12 05:28:21;;;;;;;18.73;12.27;;;;;;;16.83;100.00;101155.97;5039725;28;20837;-69
2023/09/12 05:30:49;;;;;;;27.92;13.38;;;;;;;16.84;100.00;101144.00;5027994;28;20411;-70
2023/09/12 05:33:14;;;;;;;21.75;13.05;;;;;;;16.88;100.00;101150.06;5042852;28;20060;-70
2023/09/12 05:35:40;;;;;;;27.75;14.38;;;;;;;16.86;100.00;101143.84;5015122;28;20496;-70
2023/09/12 05:38:05;;;;;;;32.58;15.15;;;;;;;16.83;100.00;101136.75;5025270;28;20449;-70
2023/09/12 05:40:31;;;;;;;26.88;14.23;;;;;;;16.83;100.00;101140.38;5023671;28;20041;-70
2023/09/12 05:42:56;;;;;;;25.35;13.60;;;;;;;16.86;100.00;101138.34;5031172;28;20032;-70
2023/09/12 05:45:21;;;;;;;29.23;15.70;;;;;;;16.86;100.00;101130.97;5036521;28;20471;-69
2023/09/12 05:47:48;;;;;;;26.77;14.63;;;;;;;16.87;100.00;101135.44;5044216;28;20033;-70
2023/09/12 05:50:14;;;;;;;21.02;13.55;;;;;;;16.90;100.00;101148.91;5026764;28;20037;-70
2023/09/12 05:52:41;;;;;;;16.80;11.50;;;;;;;16.94;100.00;101153.09;5026795;28;20041;-70
2023/09/12 05:55:07;;;;;;;20.05;12.45;;;;;;;16.96;100.00;101145.56;5030005;28;20041;-70
2023/09/12 05:57:33;;;;;;;23.50;12.88;;;;;;;17.00;100.00;101149.78;5030213;28;20120;-70
2023/09/12 05:59:59;;;;;;;23.25;13.40;;;;;;;17.05;100.00;101158.44;5027124;28;20192;-70
2023/09/12 06:02:27;;;;;;;27.70;13.05;;;;;;;17.08;100.00;101155.41;5020294;28;20033;-70
2023/09/12 06:04:52;;;;;;;23.35;15.13;;;;;;;17.11;100.00;101158.88;5047513;28;20045;-69
2023/09/12 06:07:17;;;;;;;25.15;16.35;;;;;;;17.14;100.00;101156.72;5031604;28;20507;-70
2023/09/12 06:09:43;;;;;;;26.63;13.93;;;;;;;17.17;100.00;101158.31;5033958;28;20115;-70
2023/09/12 06:12:08;;;;;;;25.30;15.35;;;;;;;17.20;100.00;101164.34;5039124;28;20033;-70
2023/09/12 06:14:34;;;;;;;23.10;13.88;;;;;;;17.22;100.00;101166.97;5035080;28;20041;-69
2023/09/12 06:16:59;;;;;;;21.85;13.80;;;;;;;17.23;100.00;101169.56;5042929;28;20504;-70
2023/09/12 06:19:24;;;;;;;21.38;13.63;;;;;;;17.24;100.00;101170.44;5025117;28;20478;-70
2023/09/12 06:21:50;;;;;;;23.60;13.35;;;;;;;17.26;100.00;101173.94;5023582;28;20080;-70
2023/09/12 06:24:17;;;;;;;18.70;13.07;;;;;;;17.30;100.00;101180.88;5031129;28;20029;-69
2023/09/12 06:26:43;;;;;;;19.15;12.93;;;;;;;17.33;100.00;101186.06;5029625;28;20459;-69
2023/09/12 06:29:09;;;;;;;18.90;12.77;;;;;;;17.29;100.00;101173.63;5029763;28;20108;-69
2023/09/12 06:31:37;;;;;;;20.90;13.73;;;;;;;17.28;100.00;101174.63;5031568;28;20052;-69
2023/09/12 06:34:03;;;;;;;24.50;13.18;;;;;;;17.29;100.00;101170.88;5031030;28;20788;-69
2023/09/12 06:36:31;;;;;;;24.58;13.43;;;;;;;17.34;100.00;101166.66;5033407;28;20041;-70
2023/09/12 06:38:58;;;;;;;26.08;13.65;;;;;;;17.36;100.00;101172.03;5031002;28;20052;-69
2023/09/12 06:41:24;;;;;;;22.77;12.73;;;;;;;17.40;100.00;101181.72;5035506;28;20036;-69
2023/09/12 06:43:49;;;;;;;20.45;12.85;;;;;;;17.42;100.00;101182.44;5040006;28;20033;-69
2023/09/12 06:46:17;;;;;;;26.35;15.07;;;;;;;17.44;100.00;101174.91;5051479;28;20040;-69
2023/09/12 06:48:45;;;;;;;24.45;15.02;;;;;;;17.45;100.00;101182.16;5050626;28;20043;-69
2023/09/12 06:51:12;;;;;;;29.40;15.43;;;;;;;17.47;100.00;101187.50;5042534;28;20032;-69
2023/09/12 06:53:37;;;;;;;22.88;15.18;;;;;;;17.48;100.00;101192.84;5030799;28;20504;-70
2023/09/12 06:56:06;;;;;;;27.88;16.08;;;;;;;17.54;100.00;101195.03;5029525;28;20033;-69
2023/09/12 06:58:32;;;;;;;29.25;16.85;;;;;;;17.61;100.00;101198.03;5033720;28;20492;-69
2023/09/12 07:01:05;;;;;;;27.58;16.85;;;;;;;17.69;100.00;101198.16;5045999;28;20057;-69
2023/09/12 07:03:34;;;;;;;30.17;17.63;;;;;;;17.72;100.00;101191.47;5030387;28;20460;-69
2023/09/12 07:06:00;;;;;;;28.15;17.50;;;;;;;17.79;100.00;101187.16;5045547;28;20033;-70
2023/09/12 07:08:26;;;;;;;29.55;16.90;;;;;;;17.82;100.00;101189.63;5045568;28;20083;-69
2023/09/12 07:10:54;;;;;;;27.23;16.92;;;;;;;17.87;100.00;101187.28;5030948;28;20061;-69
2023/09/12 07:13:21;;;;;;;24.85;16.23;;;;;;;17.93;100.00;101192.19;5028819;28;20041;-69
2023/09/12 07:15:46;;;;;;;30.27;16.52;;;;;;;18.04;100.00;101191.97;5030647;28;20108;-69
2023/09/12 07:18:12;;;;;;;26.00;16.08;;;;;;;18.15;100.00;101192.84;5030293;28;20116;-69
2023/09/12 07:20:37;;;;;;;32.85;18.33;;;;;;;18.24;100.00;101197.44;5030653;28;20033;-69
2023/09/12 07:23:02;;;;;;;34.13;18.75;;;;;;;18.29;100.00;101195.94;5047481;28;20024;-69
2023/09/12 07:25:28;;;;;;;33.15;19.65;;;;;;;18.34;100.00;101199.09;5031475;28;20759;-69
2023/09/12 07:27:53;;;;;;;37.60;20.70;;;;;;;18.39;100.00;101198.66;5047401;28;20127;-69
2023/09/12 07:30:19;;;;;;;39.33;20.95;;;;;;;18.44;100.00;101204.56;5049945;28;20068;-70
2023/09/12 07:32:44;;;;;;;42.60;22.23;;;;;;;18.42;100.00;101201.09;5048245;28;20049;-70
2023/09/12 07:35:10;;;;;;;34.67;20.85;;;;;;;18.42;100.00;101206.63;5050075;28;20060;-69
2023/09/12 07:37:35;;;;;;;33.63;20.98;;;;;;;18.50;100.00;101214.09;5049972;28;20032;-70
2023/09/12 07:40:01;;;;;;;34.55;20.70;;;;;;;18.55;100.00;101209.84;5050133;28;20045;-69
2023/09/12 07:42:27;;;;;;;39.13;21.52;;;;;;;18.57;100.00;101201.44;5044680;28;20045;-70
2023/09/12 07:44:52;;;;;;;43.08;23.50;;;;;;;18.61;100.00;101201.00;5030088;28;20025;-69
2023/09/12 07:47:18;;;;;;;35.40;22.73;;;;;;;18.68;100.00;101200.34;5028822;28;20045;-69
2023/09/12 07:49:44;;;;;;;38.95;21.75;;;;;;;18.71;100.00;101203.72;5029858;28;20564;-69
2023/09/12 07:52:09;;;;;;;40.45;21.98;;;;;;;18.78;100.00;101206.69;5029518;28;20477;-69
2023/09/12 07:54:36;;;;;;;42.22;22.05;;;;;;;18.82;100.00;101202.63;5029323;28;20108;-69
2023/09/12 07:57:02;;;;;;;42.65;23.25;;;;;;;18.80;100.00;101199.16;5030222;28;20564;-69
2023/09/12 07:59:28;;;;;;;35.15;21.48;;;;;;;18.85;100.00;101205.06;5028249;28;20125;-69
2023/09/12 08:01:53;;;;;;;36.17;22.23;;;;;;;18.89;100.00;101197.34;5030450;28;20120;-69
2023/09/12 08:04:19;;;;;;;38.55;21.83;;;;;;;18.97;100.00;101206.56;5046355;28;20033;-69
2023/09/12 08:06:44;;;;;;;36.95;21.83;;;;;;;19.10;100.00;101203.41;5049830;28;20032;-69
2023/09/12 08:09:12;;;;;;;37.05;21.10;;;;;;;19.26;100.00;101206.34;5049245;28;20041;-69
2023/09/12 08:11:37;;;;;;;34.10;21.10;;;;;;;19.41;100.00;101205.78;5049815;28;20577;-70
2023/09/12 08:14:03;;;;;;;33.92;20.58;;;;;;;19.50;100.00;101215.84;5031620;28;20056;-70
2023/09/12 08:16:28;;;;;;;30.65;18.75;;;;;;;19.66;100.00;101229.78;5029527;28;20041;-69
2023/09/12 08:18:54;;;;;;;31.45;19.60;;;;;;;19.81;100.00;101233.69;5029239;28;20041;-69
2023/09/12 08:21:19;;;;;;;30.27;19.15;;;;;;;20.00;100.00;101238.13;5028873;28;20045;-70
2023/09/12 08:23:45;;;;;;;29.85;19.63;;;;;;;20.19;100.00;101236.16;5029184;28;20034;-70
2023/09/12 08:26:11;;;;;;;33.20;20.85;;;;;;;20.35;100.00;101228.84;5046403;28;20123;-70
2023/09/12 08:28:36;;;;;;;31.23;19.88;;;;;;;20.46;100.00;101232.34;5036588;28;20043;-70
2023/09/12 08:31:01;;;;;;;41.17;21.55;;;;;;;20.43;100.00;101227.16;5029244;28;20422;-70
2023/09/12 08:33:27;;;;;;;37.80;23.15;;;;;;;20.40;100.00;101242.16;5028651;28;20037;-70
2023/09/12 08:35:52;;;;;;;33.03;19.55;;;;;;;20.39;100.00;101245.97;5029779;28;20783;-70
2023/09/12 08:38:17;;;;;;;33.35;20.30;;;;;;;20.44;100.00;101254.63;5028235;28;20124;-70
2023/09/12 08:40:50;;;;;;;33.22;19.45;;;;;;;20.46;100.00;101257.22;5029093;28;20037;-70
2023/09/12 08:43:16;;;;;;;33.17;20.05;;;;;;;20.51;100.00;101254.84;5039909;28;20366;-70
2023/09/12 08:45:43;;;;;;;31.77;19.08;;;;;;;20.62;100.00;101249.91;5028856;28;20120;-70
2023/09/12 08:48:10;;;;;;;26.20;17.52;;;;;;;20.76;100.00;101253.94;5027870;28;20933;-69
2023/09/12 08:50:35;;;;;;;26.08;17.42;;;;;;;20.82;100.00;101256.03;5043883;28;20034;-70
2023/09/12 08:53:01;;;;;;;26.33;16.60;;;;;;;21.02;99.86;101253.81;5028540;28;20037;-70
2023/09/12 08:55:26;;;;;;;22.23;15.05;;;;;;;21.18;99.83;101253.00;5020278;28;20088;-69
2023/09/12 08:57:55;;;;;;;22.20;15.02;;;;;;;21.28;99.34;101256.47;5011515;28;20037;-69
2023/09/12 09:00:22;;;;;;;20.85;14.10;;;;;;;21.37;98.47;101249.94;5043482;28;20140;-70
2023/09/12 09:02:48;;;;;;;23.40;15.88;;;;;;;21.36;96.69;101252.91;5027883;28;20044;-68
2023/09/12 09:05:15;;;;;;;22.13;14.07;;;;;;;21.43;96.72;101253.06;5027638;28;20041;-70
2023/09/12 09:07:42;;;;;;;23.92;14.65;;;;;;;21.48;96.45;101259.81;5043489;28;20437;-69
2023/09/12 09:10:15;;;;;;;24.05;14.98;;;;;;;21.55;95.11;101258.09;5028143;28;20041;-69
2023/09/12 09:12:40;;;;;;;22.52;15.18;;;;;;;21.62;96.56;101256.34;5025846;28;20460;-70
2023/09/12 09:15:27;;;;;;;20.85;14.85;;;;;;;21.61;95.92;101273.13;5027886;28;20030;-69
2023/09/12 09:17:53;;;;;;;22.08;15.20;;;;;;;21.68;94.49;101254.78;5039122;28;20064;-70
2023/09/12 09:20:22;;;;;;;29.45;17.08;;;;;;;21.72;94.76;101250.63;5048042;28;20044;-69
2023/09/12 09:22:57;;;;;;;20.95;15.23;;;;;;;21.77;93.73;101236.25;5047760;28;20033;-69
2023/09/12 09:25:22;;;;;;;23.35;15.43;;;;;;;21.90;93.95;101236.59;5030928;28;20044;-69
2023/09/12 09:27:48;;;;;;;25.45;16.48;;;;;;;22.04;91.94;101229.47;5026642;28;20041;-68
2023/09/12 09:30:13;;;;;;;23.50;15.48;;;;;;;22.10;91.18;101226.88;5027528;28;20033;-69
2023/09/12 09:32:38;;;;;;;23.35;15.55;;;;;;;22.12;91.23;101227.56;5025901;28;20037;-69
2023/09/12 09:35:04;;;;;;;31.00;17.30;;;;;;;22.28;91.15;101228.56;5042577;28;20037;-70
2023/09/12 09:37:30;;;;;;;32.33;17.20;;;;;;;22.49;92.76;101227.97;5027240;28;20045;-70
2023/09/12 09:39:55;;;;;;;33.38;19.92;;;;;;;22.57;88.86;101231.59;5027541;28;20041;-70
2023/09/12 09:42:20;;;;;;;34.35;19.90;;;;;;;22.78;91.79;101236.50;5027762;28;20104;-69
2023/09/12 09:44:47;;;;;;;32.03;18.73;;;;;;;23.06;90.65;101236.88;5026199;28;20401;-68
2023/09/12 09:47:13;;;;;;;37.90;21.17;;;;;;;23.29;89.00;101224.94;5026688;28;20528;-69
2023/09/12 09:49:38;;;;;;;35.85;20.15;;;;;;;23.47;85.87;101225.47;5027207;28;20025;-69
2023/09/12 09:52:05;;;;;;;36.05;20.10;;;;;;;23.71;85.20;101224.44;5027022;28;20040;-69
2023/09/12 09:54:30;;;;;;;35.83;20.50;;;;;;;23.98;85.94;101222.09;5026997;28;20735;-70
2023/09/12 09:56:57;;;;;;;34.58;19.25;;;;;;;24.12;84.69;101210.97;5007823;28;20029;-70
2023/09/12 09:59:27;;;;;;;38.42;20.90;;;;;;;24.36;81.83;101220.97;5033362;28;20054;-70
2023/09/12 10:01:59;;;;;;;30.73;17.58;;;;;;;24.52;77.29;101230.16;5008350;28;20084;-69
2023/09/12 10:04:27;;;;;;;30.75;19.30;;;;;;;24.58;79.71;101229.41;5007704;28;20109;-70
2023/09/12 10:06:55;;;;;;;30.65;17.35;;;;;;;24.71;80.04;101237.06;5014337;28;20029;-69
2023/09/12 10:09:23;;;;;;;28.48;15.85;;;;;;;25.09;80.68;101233.09;5026080;28;20068;-69
2023/09/12 10:11:51;;;;;;;30.73;17.63;;;;;;;25.37;77.94;101235.09;5027536;28;20045;-69
2023/09/12 10:14:19;;;;;;;26.88;15.98;;;;;;;25.59;79.44;101230.34;5024877;28;20042;-70
2023/09/12 10:16:48;;;;;;;20.45;13.02;;;;;;;25.57;73.54;101229.72;5027256;28;20119;-69
2023/09/12 10:19:26;;;;;;;24.23;13.68;;;;;;;25.72;75.45;101212.91;5042246;28;20584;-69
2023/09/12 10:22:06;;;;;;;24.60;14.85;;;;;;;26.02;74.48;101219.16;5036691;28;20032;-70
2023/09/12 10:24:33;;;;;;;22.58;13.95;;;;;;;25.92;68.99;101213.94;5046732;28;20041;-70
2023/09/12 10:26:59;;;;;;;24.63;15.48;;;;;;;25.70;69.94;101216.75;5047291;28;20086;-70
2023/09/12 10:29:25;;;;;;;21.73;14.35;;;;;;;25.80;71.70;101216.44;5029786;28;20038;-71
2023/09/12 10:31:50;;;;;;;26.83;14.30;;;;;;;26.07;71.96;101211.91;5027651;28;20099;-70
2023/09/12 10:34:16;;;;;;;26.05;14.95;;;;;;;26.16;71.49;101215.38;5026681;28;20032;-69
2023/09/12 10:36:43;;;;;;;25.92;15.30;;;;;;;26.50;73.10;101213.72;5027212;28;20037;-69
2023/09/12 10:39:11;;;;;;;35.60;17.33;;;;;;;26.53;71.53;101213.28;5039784;28;20468;-70
2023/09/12 10:41:38;;;;;;;25.58;17.10;;;;;;;26.76;71.33;101215.75;5047106;28;20044;-70
2023/09/12 10:44:11;;;;;;;24.88;16.60;;;;;;;26.74;68.79;101207.59;5032746;28;20033;-69
2023/09/12 10:46:40;;;;;;;25.85;15.77;;;;;;;26.84;69.88;101208.03;5030937;28;20182;-69
2023/09/12 10:49:10;;;;;;;24.27;15.15;;;;;;;26.81;65.98;101213.19;5029334;28;20543;-69
2023/09/12 10:51:41;;;;;;;20.40;13.98;;;;;;;26.58;65.96;101213.50;5029509;28;20488;-70
2023/09/12 10:54:10;;;;;;;22.92;13.50;;;;;;;26.68;65.29;101214.00;5029912;28;20508;-70
2023/09/12 10:56:35;;;;;;;22.35;14.40;;;;;;;26.75;66.48;101223.25;5030450;28;20021;-70
2023/09/12 10:59:04;;;;;;;20.63;11.73;;;;;;;27.03;67.77;101216.69;5032216;28;20172;-70
2023/09/12 11:01:30;;;;;;;19.30;12.48;;;;;;;27.18;64.75;101226.66;5030722;28;20038;-70